createdAt,value
2023-02-07T00:03:06.298Z,19.82
2023-02-07T00:08:28.056Z,19.77
2023-02-07T00:13:52.749Z,19.73
2023-02-07T00:19:15.456Z,19.65
2023-02-07T00:24:37.143Z,19.64
2023-02-07T00:29:58.859Z,19.61
2023-02-07T00:35:20.578Z,19.57
2023-02-07T00:40:42.353Z,19.55
2023-02-07T00:46:05.719Z,19.52
2023-02-07T00:51:27.702Z,19.48
2023-02-07T00:56:49.427Z,19.43
2023-02-07T01:02:11.241Z,19.42
2023-02-07T01:07:34.228Z,19.36
2023-02-07T01:12:56.056Z,19.34
2023-02-07T01:18:17.877Z,19.30
2023-02-07T01:23:39.852Z,19.28
2023-02-07T01:29:02.647Z,19.26
2023-02-07T01:34:24.337Z,19.22
2023-02-07T01:39:47.524Z,19.18
2023-02-07T01:45:40.466Z,19.18
2023-02-07T01:51:06.189Z,19.14
2023-02-07T01:56:32.013Z,19.08
2023-02-07T02:01:55.433Z,19.10
2023-02-07T02:07:17.499Z,19.06
2023-02-07T02:12:55.775Z,19.05
2023-02-07T02:18:39.118Z,19.02
2023-02-07T02:24:19.314Z,18.97
2023-02-07T02:30:00.171Z,18.95
2023-02-07T02:35:40.672Z,18.93
2023-02-07T02:41:37.034Z,18.90
2023-02-07T02:47:03.439Z,18.87
2023-02-07T02:52:40.726Z,18.86
2023-02-07T02:58:27.778Z,18.83
2023-02-07T03:03:55.330Z,18.79
2023-02-07T03:09:38.341Z,18.80
2023-02-07T03:15:07.550Z,18.76
2023-02-07T03:20:35.218Z,18.73
2023-02-07T03:26:01.330Z,18.70
2023-02-07T03:31:25.871Z,18.69
2023-02-07T03:36:57.661Z,18.67
2023-02-07T03:42:31.369Z,18.66
2023-02-07T03:47:53.080Z,18.62
2023-02-07T03:53:14.798Z,18.59
2023-02-07T03:58:36.477Z,18.56
2023-02-07T04:03:58.204Z,18.54
2023-02-07T04:09:19.926Z,18.52
2023-02-07T04:14:41.597Z,18.51
2023-02-07T04:20:05.555Z,18.51
2023-02-07T04:25:27.384Z,18.48
2023-02-07T04:30:49.107Z,18.45
2023-02-07T04:36:11.002Z,18.43
2023-02-07T04:41:33.007Z,18.41
2023-02-07T04:46:54.761Z,18.41
2023-02-07T04:52:16.434Z,18.36
2023-02-07T04:57:38.107Z,18.34
2023-02-07T05:03:00.958Z,18.33
2023-02-07T05:08:25.298Z,18.30
2023-02-07T05:13:47.868Z,18.28
2023-02-07T05:19:09.675Z,18.28
2023-02-07T05:24:31.483Z,18.26
2023-02-07T05:29:53.259Z,18.22
2023-02-07T05:35:15.144Z,18.22
2023-02-07T05:40:38.315Z,18.20
2023-02-07T05:46:00.041Z,18.19
2023-02-07T05:51:21.816Z,18.18
2023-02-07T05:56:43.536Z,18.18
2023-02-07T06:02:05.475Z,18.14
2023-02-07T06:07:27.253Z,18.13
2023-02-07T06:12:48.986Z,18.12
2023-02-07T06:18:10.746Z,18.11
2023-02-07T06:23:32.438Z,18.10
2023-02-07T06:28:54.200Z,18.09
2023-02-07T06:34:15.994Z,18.08
2023-02-07T06:39:37.806Z,18.08
2023-02-07T06:44:59.644Z,18.07
2023-02-07T06:50:21.377Z,18.07
2023-02-07T06:55:43.310Z,18.05
2023-02-07T07:01:05.594Z,18.04
2023-02-07T07:06:27.352Z,18.04
2023-02-07T07:11:49.646Z,18.04
2023-02-07T07:17:11.318Z,18.03
2023-02-07T07:22:33.616Z,18.01
2023-02-07T07:27:55.401Z,18.03
2023-02-07T07:33:17.085Z,18.10
2023-02-07T07:38:38.973Z,18.18
2023-02-07T07:44:00.772Z,18.19
2023-02-07T07:49:22.514Z,18.22
2023-02-07T07:54:44.251Z,18.22
2023-02-07T08:00:06.591Z,18.29
2023-02-07T08:05:28.292Z,18.36
2023-02-07T08:10:50.347Z,18.46
2023-02-07T08:16:12.195Z,18.53
2023-02-07T08:21:33.960Z,18.71
2023-02-07T08:26:55.917Z,18.89
2023-02-07T08:32:17.657Z,18.95
2023-02-07T08:37:39.721Z,19.11
2023-02-07T08:43:01.425Z,19.37
2023-02-07T08:48:23.215Z,19.55
2023-02-07T08:53:44.933Z,19.36
2023-02-07T08:59:06.764Z,19.61
2023-02-07T09:04:28.620Z,19.77
2023-02-07T09:09:50.415Z,19.53
2023-02-07T09:15:12.215Z,19.27
2023-02-07T09:20:33.945Z,19.04
2023-02-07T09:26:01.415Z,18.84
2023-02-07T09:31:24.801Z,18.69
2023-02-07T09:36:46.600Z,18.57
2023-02-07T09:42:45.393Z,18.48
2023-02-07T09:48:16.906Z,18.37
2023-02-07T09:53:45.291Z,18.25
2023-02-07T09:59:16.879Z,18.20
2023-02-07T10:04:44.169Z,18.14
2023-02-07T10:10:18.201Z,18.10
2023-02-07T10:16:12.018Z,18.08
2023-02-07T10:21:52.105Z,18.05
2023-02-07T10:27:21.792Z,17.99
2023-02-07T10:32:47.047Z,17.98
2023-02-07T10:38:38.174Z,17.97
2023-02-07T10:43:59.924Z,17.92
2023-02-07T10:49:26.067Z,17.90
2023-02-07T10:54:54.560Z,17.90
2023-02-07T11:00:30.510Z,17.88
2023-02-07T11:05:56.942Z,17.89
2023-02-07T11:11:37.034Z,17.89
2023-02-07T11:17:01.536Z,17.87
2023-02-07T11:22:25.355Z,17.87
2023-02-07T11:27:47.191Z,17.84
2023-02-07T11:33:19.509Z,17.85
2023-02-07T11:38:50.533Z,17.86
2023-02-07T11:44:17.524Z,17.82
2023-02-07T11:49:39.249Z,17.82
2023-02-07T11:55:07.375Z,17.80
2023-02-07T12:00:30.599Z,17.80
2023-02-07T12:05:59.244Z,17.81
2023-02-07T12:11:34.261Z,17.79
2023-02-07T12:17:00.741Z,17.76
2023-02-07T12:22:29.335Z,17.76
2023-02-07T12:27:56.912Z,17.74
2023-02-07T12:33:42.370Z,17.73
2023-02-07T12:39:12.671Z,17.71
2023-02-07T12:44:52.315Z,17.71
2023-02-07T12:50:21.989Z,17.69
2023-02-07T12:56:28.484Z,17.65
2023-02-07T13:02:16.988Z,17.64
2023-02-07T13:07:57.526Z,17.63
2023-02-07T13:13:25.050Z,17.63
2023-02-07T13:19:02.776Z,17.74
2023-02-07T13:24:27.486Z,17.90
2023-02-07T13:29:51.704Z,18.08
2023-02-07T13:35:23.662Z,18.27
2023-02-07T13:41:04.058Z,18.36
2023-02-07T13:46:32.005Z,18.37
2023-02-07T13:52:11.801Z,18.37
2023-02-07T13:57:51.983Z,18.32
2023-02-07T14:03:22.845Z,18.29
2023-02-07T14:08:45.402Z,18.24
2023-02-07T14:14:14.520Z,18.21
2023-02-07T14:19:43.281Z,18.17
2023-02-07T14:25:07.698Z,18.10
2023-02-07T14:30:54.184Z,18.06
2023-02-07T14:36:18.871Z,17.99
2023-02-07T14:41:43.210Z,17.94
2023-02-07T14:47:08.569Z,17.89
2023-02-07T14:52:34.090Z,17.84
2023-02-07T14:58:03.889Z,17.79
2023-02-07T15:03:30.779Z,17.76
2023-02-07T15:09:20.701Z,17.73
2023-02-07T15:14:42.516Z,17.68
2023-02-07T15:20:04.705Z,17.65
2023-02-07T15:25:28.112Z,17.63
2023-02-07T15:31:04.976Z,17.61
2023-02-07T15:36:36.847Z,17.56
2023-02-07T15:41:58.836Z,17.50
2023-02-07T15:47:29.497Z,17.48
2023-02-07T15:52:54.563Z,17.45
2023-02-07T15:58:33.356Z,17.42
2023-02-07T16:03:57.738Z,17.39
2023-02-07T16:09:43.423Z,17.37
2023-02-07T16:15:22.544Z,17.36
2023-02-07T16:20:44.337Z,17.32
2023-02-07T16:26:06.126Z,17.30
2023-02-07T16:31:28.322Z,17.29
2023-02-07T16:36:53.701Z,17.27
2023-02-07T16:42:17.185Z,17.24
2023-02-07T16:47:38.866Z,17.21
2023-02-07T16:53:00.674Z,17.18
2023-02-07T16:58:27.320Z,17.20
2023-02-07T17:03:49.371Z,17.17
2023-02-07T17:09:23.199Z,17.16
2023-02-07T17:14:44.876Z,17.12
2023-02-07T17:20:20.445Z,17.11
2023-02-07T17:25:43.820Z,17.07
2023-02-07T17:31:05.613Z,17.04
2023-02-07T17:36:29.148Z,17.10
2023-02-07T17:41:50.908Z,17.40
2023-02-07T17:47:12.804Z,17.94
2023-02-07T17:52:35.151Z,18.55
2023-02-07T17:57:57.016Z,19.06
2023-02-07T18:03:20.479Z,19.52
2023-02-07T18:08:43.046Z,19.91
2023-02-07T18:14:04.985Z,20.21
2023-02-07T18:19:26.819Z,20.52
2023-02-07T18:24:48.520Z,20.76
2023-02-07T18:30:11.841Z,20.89
2023-02-07T18:35:34.051Z,20.87
2023-02-07T18:40:55.780Z,20.72
2023-02-07T18:46:20.243Z,20.55
2023-02-07T18:51:42.056Z,20.37
2023-02-07T18:57:03.853Z,20.16
2023-02-07T19:02:25.905Z,20.01
2023-02-07T19:07:47.693Z,19.88
2023-02-07T19:13:09.505Z,19.94
2023-02-07T19:18:31.424Z,20.21
2023-02-07T19:23:54.798Z,20.55
2023-02-07T19:29:20.490Z,20.93
2023-02-07T19:34:42.790Z,21.21
2023-02-07T19:40:04.801Z,21.46
2023-02-07T19:45:27.308Z,21.69
2023-02-07T19:51:00.625Z,21.87
2023-02-07T19:56:24.604Z,22.02
2023-02-07T20:01:46.578Z,22.18
2023-02-07T20:07:08.282Z,22.33
2023-02-07T20:12:29.996Z,22.44
2023-02-07T20:17:52.009Z,22.57
2023-02-07T20:23:14.127Z,22.67
2023-02-07T20:28:38.450Z,22.78
2023-02-07T20:34:02.254Z,22.79
2023-02-07T20:39:24.120Z,22.72
2023-02-07T20:44:45.908Z,22.55
2023-02-07T20:50:08.027Z,22.35
2023-02-07T20:55:30.000Z,22.21
2023-02-07T21:00:51.720Z,22.23
2023-02-07T21:06:13.655Z,22.34
2023-02-07T21:11:44.876Z,22.38
2023-02-07T21:17:06.715Z,22.29
2023-02-07T21:22:28.703Z,22.21
2023-02-07T21:27:50.401Z,22.10
2023-02-07T21:33:12.886Z,22.01
2023-02-07T21:38:35.397Z,21.86
2023-02-07T21:43:59.079Z,21.67
2023-02-07T21:49:21.086Z,21.47
2023-02-07T21:54:42.835Z,21.26
2023-02-07T22:00:08.204Z,21.04
2023-02-07T22:05:29.924Z,20.88
2023-02-07T22:10:51.666Z,20.70
2023-02-07T22:16:15.094Z,20.56
2023-02-07T22:21:37.943Z,20.41
2023-02-07T22:26:59.869Z,20.28
2023-02-07T22:32:21.594Z,20.17
2023-02-07T22:37:43.290Z,20.05
2023-02-07T22:43:12.428Z,19.93
2023-02-07T22:48:34.582Z,19.83
2023-02-07T22:53:59.111Z,19.76
2023-02-07T22:59:20.840Z,19.62
2023-02-07T23:04:42.547Z,19.53
2023-02-07T23:10:07.011Z,19.45
2023-02-07T23:15:29.012Z,19.34
2023-02-07T23:20:51.056Z,19.26
2023-02-07T23:26:15.790Z,19.20
2023-02-07T23:31:37.566Z,19.13
2023-02-07T23:36:59.271Z,19.08
2023-02-07T23:42:21.262Z,19.04
2023-02-07T23:47:43.162Z,18.99
2023-02-07T23:53:04.904Z,18.95
2023-02-07T23:58:27.572Z,18.89
